createdAt,value
2022-09-18T00:00:01.982Z,75.10
2022-09-18T00:05:06.405Z,74.70
2022-09-18T00:10:11.941Z,74.10
2022-09-18T00:15:15.233Z,73.80
2022-09-18T00:20:18.669Z,73.20
2022-09-18T00:25:24.013Z,72.80
2022-09-18T00:30:27.303Z,72.50
2022-09-18T00:35:30.569Z,72.50
2022-09-18T00:40:35.333Z,72.10
2022-09-18T00:45:38.969Z,72.30
2022-09-18T00:50:42.504Z,72.20
2022-09-18T00:55:47.529Z,72.30
2022-09-18T01:00:50.832Z,72.30
2022-09-18T01:06:06.850Z,72.60
2022-09-18T01:11:31.717Z,72.50
2022-09-18T01:16:44.058Z,72.20
2022-09-18T01:21:56.680Z,71.80
2022-09-18T01:27:05.204Z,71.40
2022-09-18T01:32:19.161Z,71.20
2022-09-18T01:37:29.424Z,71.10
2022-09-18T01:42:35.284Z,71.20
2022-09-18T01:47:46.468Z,71.60
2022-09-18T01:52:53.805Z,72.30
2022-09-18T01:58:03.206Z,72.80
2022-09-18T02:03:12.348Z,73.60
2022-09-18T02:08:21.249Z,74.60
2022-09-18T02:13:30.064Z,75.00
2022-09-18T02:18:38.370Z,75.60
2022-09-18T02:23:43.274Z,75.90
2022-09-18T02:28:48.650Z,76.90
2022-09-18T02:33:53.625Z,76.20
2022-09-18T02:39:09.351Z,75.40
2022-09-18T02:44:20.786Z,74.80
2022-09-18T02:49:36.569Z,74.10
2022-09-18T02:54:44.725Z,74.10
2022-09-18T02:59:51.897Z,74.50
2022-09-18T03:04:56.582Z,75.20
2022-09-18T03:09:59.888Z,74.80
2022-09-18T03:15:03.424Z,74.90
2022-09-18T03:20:09.171Z,74.60
2022-09-18T03:25:14.364Z,75.00
2022-09-18T03:30:18.214Z,75.60
2022-09-18T03:35:23.456Z,75.70
2022-09-18T03:40:26.878Z,75.30
2022-09-18T03:45:30.253Z,74.90
2022-09-18T03:50:34.878Z,74.60
2022-09-18T03:55:38.183Z,74.30
2022-09-18T04:00:42.111Z,73.90
2022-09-18T04:05:49.213Z,73.60
2022-09-18T04:10:52.529Z,73.30
2022-09-18T04:15:56.173Z,73.80
2022-09-18T04:21:00.849Z,74.60
2022-09-18T04:26:09.345Z,76.10
2022-09-18T04:31:13.028Z,75.10
2022-09-18T04:36:17.652Z,74.80
2022-09-18T04:41:21.183Z,74.40
2022-09-18T04:46:24.518Z,75.00
2022-09-18T04:51:29.259Z,75.60
2022-09-18T04:56:32.547Z,75.80
2022-09-18T05:01:36.432Z,75.90
2022-09-18T05:06:41.723Z,76.70
2022-09-18T05:11:45.022Z,77.30
2022-09-18T05:16:48.340Z,77.20
2022-09-18T05:21:52.975Z,78.20
2022-09-18T05:26:56.234Z,78.60
2022-09-18T05:31:59.975Z,79.00
2022-09-18T05:37:04.627Z,79.40
2022-09-18T05:42:08.438Z,80.60
2022-09-18T05:47:12.166Z,81.70
2022-09-18T05:52:17.031Z,82.20
2022-09-18T05:57:20.298Z,82.50
2022-09-18T06:02:23.807Z,82.90
2022-09-18T06:07:28.488Z,82.40
2022-09-18T06:12:31.762Z,82.50
2022-09-18T06:17:35.030Z,82.40
2022-09-18T06:22:39.962Z,82.00
2022-09-18T06:27:43.237Z,81.50
2022-09-18T06:32:46.947Z,82.10
2022-09-18T06:37:51.603Z,82.80
2022-09-18T06:42:57.338Z,83.60
2022-09-18T06:48:02.793Z,83.80
2022-09-18T06:53:12.414Z,83.10
2022-09-18T06:58:17.386Z,84.00
2022-09-18T07:03:20.701Z,83.90
2022-09-18T07:08:25.460Z,83.20
2022-09-18T07:13:31.937Z,84.10
2022-09-18T07:18:35.420Z,85.00
2022-09-18T07:23:40.060Z,85.10
2022-09-18T07:28:43.555Z,86.10
2022-09-18T07:33:52.660Z,86.20
2022-09-18T07:38:58.064Z,86.20
2022-09-18T07:44:02.015Z,86.10
2022-09-18T07:49:05.411Z,85.50
2022-09-18T07:54:10.121Z,86.10
2022-09-18T07:59:13.441Z,85.30
2022-09-18T08:04:16.854Z,85.20
2022-09-18T08:09:21.923Z,84.50
2022-09-18T08:14:28.735Z,84.60
2022-09-18T08:19:32.688Z,85.00
2022-09-18T08:24:37.517Z,84.60
2022-09-18T08:29:40.774Z,84.60
2022-09-18T08:34:44.028Z,84.50
2022-09-18T08:39:48.706Z,84.30
2022-09-18T08:44:56.415Z,84.50
2022-09-18T08:50:05.249Z,85.50
2022-09-18T08:55:15.586Z,85.50
2022-09-18T09:00:22.450Z,86.00
2022-09-18T09:05:33.685Z,87.60
2022-09-18T09:10:51.364Z,89.00
2022-09-18T09:16:00.470Z,90.20
2022-09-18T09:21:15.638Z,90.80
2022-09-18T09:26:23.581Z,90.80
2022-09-18T09:31:34.097Z,90.90
2022-09-18T09:36:38.424Z,90.90
2022-09-18T09:41:46.490Z,91.00
2022-09-18T09:47:01.272Z,90.40
2022-09-18T09:52:12.573Z,90.40
2022-09-18T09:57:25.718Z,90.50
2022-09-18T10:02:44.792Z,90.30
2022-09-18T10:07:51.601Z,90.20
2022-09-18T10:13:01.429Z,87.90
2022-09-18T10:18:10.027Z,89.40
2022-09-18T10:23:25.437Z,90.00
2022-09-18T10:28:30.976Z,90.20
2022-09-18T10:33:37.691Z,90.30
2022-09-18T10:38:41.202Z,90.10
2022-09-18T10:43:55.563Z,89.90
2022-09-18T10:49:02.291Z,90.40
2022-09-18T10:54:15.704Z,90.50
2022-09-18T10:59:36.581Z,90.30
2022-09-18T11:04:40.198Z,89.30
2022-09-18T11:09:44.598Z,89.30
2022-09-18T11:14:55.099Z,89.40
2022-09-18T11:20:01.437Z,88.80
2022-09-18T11:25:18.474Z,88.00
2022-09-18T11:30:26.997Z,87.00
2022-09-18T11:35:32.656Z,87.60
2022-09-18T11:40:48.813Z,87.60
2022-09-18T11:46:01.482Z,87.80
2022-09-18T11:51:11.862Z,86.70
2022-09-18T11:56:18.333Z,83.60
2022-09-18T12:01:35.174Z,83.50
2022-09-18T12:06:45.005Z,84.00
2022-09-18T12:11:55.066Z,83.20
2022-09-18T12:17:08.922Z,82.70
2022-09-18T12:22:15.785Z,83.70
2022-09-18T12:27:28.778Z,81.10
2022-09-18T12:33:04.317Z,79.40
2022-09-18T12:38:21.115Z,78.80
2022-09-18T12:44:06.678Z,78.20
2022-09-18T12:49:33.867Z,76.20
2022-09-18T12:54:58.086Z,73.60
2022-09-18T13:00:08.186Z,72.00
2022-09-18T13:05:19.312Z,69.60
2022-09-18T13:10:26.705Z,68.90
2022-09-18T13:15:35.014Z,69.10
2022-09-18T13:20:44.441Z,68.10
2022-09-18T13:25:51.704Z,67.70
2022-09-18T13:31:27.853Z,65.40
2022-09-18T13:36:36.125Z,61.90
2022-09-18T13:41:45.691Z,60.90
2022-09-18T13:46:50.154Z,58.50
2022-09-18T13:51:54.835Z,58.60
2022-09-18T13:57:31.759Z,58.10
2022-09-18T14:02:37.340Z,58.40
2022-09-18T14:08:07.063Z,57.00
2022-09-18T14:13:42.360Z,56.70
2022-09-18T14:18:57.982Z,54.20
2022-09-18T14:24:36.474Z,54.00
2022-09-18T14:29:40.597Z,52.30
2022-09-18T14:34:44.953Z,51.60
2022-09-18T14:39:49.939Z,52.00
2022-09-18T14:44:59.275Z,50.10
2022-09-18T14:50:02.658Z,52.10
2022-09-18T14:55:18.381Z,56.80
2022-09-18T15:00:25.482Z,56.10
2022-09-18T15:05:30.002Z,55.60
2022-09-18T15:10:39.169Z,53.00
2022-09-18T15:15:44.106Z,51.40
2022-09-18T15:20:51.634Z,51.60
2022-09-18T15:26:00.283Z,52.10
2022-09-18T15:31:08.594Z,52.30
2022-09-18T15:36:22.105Z,52.40
2022-09-18T15:41:32.740Z,52.20
2022-09-18T15:46:38.108Z,53.40
2022-09-18T15:51:41.557Z,52.30
2022-09-18T15:56:55.222Z,53.00
2022-09-18T16:02:00.238Z,53.50
2022-09-18T16:07:06.353Z,55.00
2022-09-18T16:12:36.771Z,55.30
2022-09-18T16:17:53.885Z,56.30
2022-09-18T16:23:05.181Z,56.20
2022-09-18T16:28:24.802Z,55.70
2022-09-18T16:33:30.937Z,56.20
2022-09-18T16:38:34.344Z,57.00
2022-09-18T16:43:39.016Z,57.40
2022-09-18T16:48:42.468Z,57.80
2022-09-18T16:53:47.712Z,57.80
2022-09-18T16:58:53.546Z,58.50
2022-09-18T17:03:57.214Z,58.70
2022-09-18T17:09:00.660Z,58.90
2022-09-18T17:14:06.442Z,59.20
2022-09-18T17:19:10.836Z,60.00
2022-09-18T17:24:14.391Z,61.00
2022-09-18T17:29:19.045Z,61.60
2022-09-18T17:34:22.354Z,62.60
2022-09-18T17:39:25.656Z,63.10
2022-09-18T17:44:34.397Z,63.20
2022-09-18T17:49:38.094Z,63.30
2022-09-18T17:54:41.813Z,63.30
2022-09-18T17:59:47.763Z,63.30
2022-09-18T18:04:51.123Z,64.00
2022-09-18T18:09:54.837Z,64.20
2022-09-18T18:14:59.935Z,65.60
2022-09-18T18:20:06.174Z,65.50
2022-09-18T18:25:13.296Z,66.70
2022-09-18T18:30:21.639Z,66.70
2022-09-18T18:35:25.123Z,68.10
2022-09-18T18:40:28.564Z,69.50
2022-09-18T18:45:35.350Z,68.50
2022-09-18T18:50:44.219Z,68.40
2022-09-18T18:55:51.477Z,68.30
2022-09-18T19:01:05.736Z,69.10
2022-09-18T19:06:09.134Z,69.10
2022-09-18T19:11:13.731Z,71.20
2022-09-18T19:16:19.323Z,71.50
2022-09-18T19:21:23.520Z,71.80
2022-09-18T19:26:29.323Z,72.20
2022-09-18T19:31:36.272Z,73.00
2022-09-18T19:36:39.993Z,73.70
2022-09-18T19:41:48.493Z,74.90
2022-09-18T19:46:58.113Z,76.80
2022-09-18T19:52:03.065Z,76.60
2022-09-18T19:57:06.534Z,76.80
2022-09-18T20:02:17.289Z,77.10
2022-09-18T20:07:20.964Z,76.60
2022-09-18T20:12:24.401Z,76.40
2022-09-18T20:17:32.266Z,75.90
2022-09-18T20:22:39.964Z,75.00
2022-09-18T20:27:43.581Z,75.40
2022-09-18T20:32:48.915Z,74.90
2022-09-18T20:37:53.295Z,74.60
2022-09-18T20:42:56.597Z,74.50
2022-09-18T20:48:06.426Z,73.80
2022-09-18T20:53:10.078Z,73.80
2022-09-18T20:58:15.339Z,73.80
2022-09-18T21:03:21.141Z,73.90
2022-09-18T21:08:25.915Z,73.60
2022-09-18T21:13:29.450Z,73.50
2022-09-18T21:18:36.438Z,73.50
2022-09-18T21:23:56.553Z,73.40
2022-09-18T21:29:01.855Z,73.50
2022-09-18T21:34:06.618Z,73.60
2022-09-18T21:39:11.853Z,73.10
2022-09-18T21:44:17.337Z,73.50
2022-09-18T21:49:22.831Z,73.50
2022-09-18T21:54:27.313Z,73.50
2022-09-18T21:59:32.087Z,73.50
2022-09-18T22:04:38.660Z,73.50
2022-09-18T22:09:42.919Z,73.20
2022-09-18T22:14:46.548Z,74.10
2022-09-18T22:19:51.177Z,74.20
2022-09-18T22:24:55.535Z,74.30
2022-09-18T22:29:58.819Z,74.30
2022-09-18T22:35:03.475Z,74.10
2022-09-18T22:40:08.259Z,74.70
2022-09-18T22:45:12.336Z,75.80
2022-09-18T22:50:17.226Z,76.70
2022-09-18T22:55:21.604Z,78.00
2022-09-18T23:00:24.900Z,78.40
2022-09-18T23:05:29.587Z,78.90
2022-09-18T23:10:33.743Z,78.30
2022-09-18T23:15:37.894Z,78.50
2022-09-18T23:20:43.092Z,78.50
2022-09-18T23:25:46.356Z,79.00
2022-09-18T23:30:49.728Z,79.40
2022-09-18T23:35:54.400Z,79.00
2022-09-18T23:41:00.882Z,79.00
2022-09-18T23:46:05.521Z,79.20
2022-09-18T23:51:12.711Z,79.40
2022-09-18T23:56:17.131Z,79.10
